Kezdőlap
METAR-TAF:

METAR-TAF

Repülőterek :

Selebi-Phikwe, Botswana

földrajzi szélesség: 22-03-19S, földrajzi hosszúság: 027-49-13E, magasság: 892 m

Jelenlegi meteorológiai megfigyelések

A jelentés 10 órával és 44 perccel ezelõtt készült, 14:00 UTC
Keleti szél 9 kt
Hőmérséklet 20°C
Páratartalom 46%
Légköri nyomás 1027 hPa
Látótávolság 10 km, vagy több
felhőtlen 1500 m magasságban, és nincs gomolyfelhõ

METAR: FBSP 221400Z 09009KT CAVOK 20/08 Q1027

Idő: 02:44 (00:44 UTC)

Előrejelzés

A jelentés 12 órával és 44 perccel ezelõtt készült, 12:00 UTC
Az előrejelzés 22-én 15 óra UTC és 22-én 24 óra UTC között érvényes
Nyugat-északnyugati szél 13 kt
Látótávolság 10 km, vagy több
felhőtlen 1500 m magasságban, és nincs gomolyfelhõ

TAF: FBSP 221200Z 2215/2224 29013KT CAVOK

Meteorológiai megfigyelések és előrejelzések több, mint 4000 repülőtéren (METAR és TAF jelentéseket).

A térképen piros és sárga pontok jelzik az elérhető meteorológiai állomásokat.

Mozgassa az egeret a pont fölött, hogy megjelenjen az állomás neve.

Azután kattintson az időjárási megfigyelések és előrejelzések megtekintéséhez.

A térkép megváltoztatása: kattintson a fekete keresztel jelölt zöld gombra ráközelítéshez, a vonallal jelölt zöld gombra távolításhoz, vagy a zöld nyilakra a szomszédos térképek eléréséhez.


METAR-TAF: